»·PEaware :: WAT540 KSNA-KAVX

WAT540 :: KSNA-KAVX

FLIGHT INFORMATION

Flight Status: Arrived
Operator:
Walker Air Transport
More flights by this operator :: More flights under this callsign
Pilot: Michael R. (33632)
Aircraft: GRUMMAN AERO AA5 CHEETAH TIGER
(AA5)
More flights by this aircraft type
Origin: KSNA John Wayne-Orange Co
United States
Destination: KAVX Catalina
United States
More flights between these airports :: More routes between these airports
Route:
File this flight plan on PilotEdge
Remarks:
Altitude:
(Current/Filed)
4,500ft
Speed:
(Current/Filed)
130kts
Departed: 13-Feb-21 01:13 AM
Arrived: 13-Feb-21 01:33 AM
Distance/Time
Traveled:
32nm/0:20
Distance/Time
To Go:
Arrived

Flight Plot

Page will automatically refresh every two minutes.


Map Options




Map Legend


Flown Route
Filed Route
Departure Airport
Arrival Airport
Navaid (VOR, NDB)
Fix

Horizontal Profiles

Position Reports

Time Latitude Longitude Heading Altitude Ground
Speed
13-Feb-21 00:45 33.674081 -117.872231 0 58ft 0kts
13-Feb-21 00:46 33.674081 -117.872231 298 58ft 0kts
13-Feb-21 00:47 33.674081 -117.872231 298 58ft 0kts
13-Feb-21 00:48 33.674081 -117.872231 298 58ft 0kts
13-Feb-21 00:49 33.674081 -117.872231 298 58ft 0kts
13-Feb-21 00:50 33.674081 -117.872231 298 58ft 0kts
13-Feb-21 00:51 33.674081 -117.872231 298 58ft 0kts
13-Feb-21 00:52 33.674081 -117.872231 298 58ft 0kts
13-Feb-21 00:53 33.674081 -117.872231 298 58ft 0kts
13-Feb-21 00:54 33.674081 -117.872231 298 58ft 0kts
13-Feb-21 00:55 33.674081 -117.872231 298 58ft 0kts
13-Feb-21 00:56 33.674081 -117.872231 298 58ft 0kts
13-Feb-21 00:57 33.674081 -117.872231 298 58ft 0kts
13-Feb-21 00:58 33.674081 -117.872231 298 58ft 0kts
13-Feb-21 00:59 33.674081 -117.872231 298 58ft 0kts
13-Feb-21 01:00 33.674081 -117.872231 298 58ft 0kts
13-Feb-21 01:01 33.674081 -117.872231 298 58ft 0kts
13-Feb-21 01:02 33.674081 -117.872231 298 58ft 0kts
13-Feb-21 01:03 33.674081 -117.872231 298 58ft 0kts
13-Feb-21 01:04 33.674081 -117.872231 298 58ft 0kts
13-Feb-21 01:05 33.674082 -117.872232 298 58ft 0kts
13-Feb-21 01:06 33.674089 -117.872246 327 58ft 0kts
13-Feb-21 01:07 33.674052 -117.871346 207 58ft 10kts
13-Feb-21 01:08 33.670368 -117.873679 208 58ft 11kts
13-Feb-21 01:09 33.669034 -117.874096 287 58ft 0kts
13-Feb-21 01:10 33.668279 -117.874601 118 58ft 0kts
13-Feb-21 01:11 33.668279 -117.874601 118 58ft 0kts
13-Feb-21 01:12 33.672317 -117.870880 30 120ft 72kts
13-Feb-21 01:13 33.690933 -117.860760 357 963ft 77kts
13-Feb-21 01:14 33.691824 -117.879343 194 1771ft 84kts
13-Feb-21 01:15 33.685904 -117.860017 57 2588ft 88kts
13-Feb-21 01:16 33.671268 -117.851308 228 3302ft 99kts
13-Feb-21 01:17 33.653063 -117.876396 222 4064ft 100kts
13-Feb-21 01:18 33.626885 -117.892942 200 4436ft 114kts
13-Feb-21 01:19 33.594745 -117.907396 216 4501ft 132kts
13-Feb-21 01:20 33.575978 -117.946331 244 4506ft 137kts
13-Feb-21 01:21 33.559881 -117.988037 245 4506ft 138kts
13-Feb-21 01:22 33.543738 -118.030065 245 4506ft 138kts
13-Feb-21 01:23 33.527711 -118.071916 246 4506ft 138kts
13-Feb-21 01:24 33.514069 -118.117166 255 4124ft 155kts
13-Feb-21 01:25 33.503012 -118.167404 255 3636ft 156kts
13-Feb-21 01:26 33.492027 -118.217606 255 3156ft 155kts
13-Feb-21 01:27 33.481340 -118.266718 255 2936ft 144kts
13-Feb-21 01:28 33.466123 -118.309723 240 2939ft 142kts
13-Feb-21 01:29 33.444012 -118.350570 233 2939ft 131kts
13-Feb-21 01:30 33.426914 -118.379265 233 2496ft 81kts
13-Feb-21 01:31 33.413704 -118.401004 235 1835ft 75kts
13-Feb-21 01:32 33.404913 -118.415113 168 1541ft 9kts
13-Feb-21 01:33 33.403702 -118.415565 156 1547ft 1kts
13-Feb-21 01:34 33.403698 -118.415560 133 1547ft 0kts
13-Feb-21 01:35 33.403698 -118.415560 133 1547ft 0kts
13-Feb-21 01:36 33.403698 -118.415560 133 1547ft 0kts
13-Feb-21 01:37 33.403698 -118.415560 133 1547ft 0kts
13-Feb-21 01:38 33.403698 -118.415560 133 1547ft 0kts
13-Feb-21 01:39 33.403698 -118.415560 133 1547ft 0kts

Navigation Log

Ident Type
Flight plan parsing failed, navigation log unavailable